createdAt,value
2023-03-30T00:00:19.303Z,100045.28
2023-03-30T00:02:50.833Z,100036.16
2023-03-30T00:05:18.286Z,100025.81
2023-03-30T00:07:45.722Z,100030.75
2023-03-30T00:10:15.373Z,100030.00
2023-03-30T00:12:43.713Z,100021.72
2023-03-30T00:15:12.408Z,100018.06
2023-03-30T00:17:39.620Z,100018.13
2023-03-30T00:20:11.746Z,100015.97
2023-03-30T00:22:42.164Z,100017.31
2023-03-30T00:25:11.024Z,100008.66
2023-03-30T00:27:37.822Z,100009.25
2023-03-30T00:30:05.860Z,100009.72
2023-03-30T00:32:32.436Z,100007.66
2023-03-30T00:34:58.891Z,100003.94
2023-03-30T00:37:25.773Z,100003.19
2023-03-30T00:39:53.330Z,100004.84
2023-03-30T00:42:21.665Z,100000.13
2023-03-30T00:45:07.444Z,99988.28
2023-03-30T00:47:41.405Z,99976.69
2023-03-30T00:50:09.625Z,99971.53
2023-03-30T00:52:37.296Z,99968.22
2023-03-30T00:55:07.732Z,99967.84
2023-03-30T00:57:37.260Z,99968.94
2023-03-30T01:00:08.393Z,99958.06
2023-03-30T01:02:41.535Z,99954.81
2023-03-30T01:05:08.864Z,99952.63
2023-03-30T01:07:37.203Z,99930.97
2023-03-30T01:10:04.422Z,99936.69
2023-03-30T01:12:31.524Z,99926.31
2023-03-30T01:14:57.988Z,99937.25
2023-03-30T01:17:37.240Z,99923.53
2023-03-30T01:20:36.204Z,99923.88
2023-03-30T01:23:37.580Z,99917.13
2023-03-30T01:26:09.772Z,99914.16
2023-03-30T01:28:39.167Z,99915.78
2023-03-30T01:31:25.464Z,99907.53
2023-03-30T01:34:06.332Z,99905.56
2023-03-30T01:36:41.844Z,99908.13
2023-03-30T01:39:23.421Z,99908.25
2023-03-30T01:42:12.876Z,99894.69
2023-03-30T01:44:48.007Z,99902.19
2023-03-30T01:47:38.256Z,99899.75
2023-03-30T01:50:11.669Z,99896.78
2023-03-30T01:53:00.209Z,99904.78
2023-03-30T01:55:36.781Z,99887.78
2023-03-30T01:58:21.574Z,99891.53
2023-03-30T02:00:50.422Z,99887.16
2023-03-30T02:03:22.888Z,99883.00
2023-03-30T02:05:54.040Z,99880.97
2023-03-30T02:08:25.385Z,99872.25
2023-03-30T02:10:55.404Z,99865.38
2023-03-30T02:13:23.489Z,99850.25
2023-03-30T02:15:56.399Z,99851.53
2023-03-30T02:18:22.876Z,99849.34
2023-03-30T02:20:49.490Z,99844.25
2023-03-30T02:23:19.796Z,99836.81
2023-03-30T02:25:46.598Z,99840.81
2023-03-30T02:28:12.988Z,99834.53
2023-03-30T02:30:43.148Z,99833.44
2023-03-30T02:33:29.236Z,99830.22
2023-03-30T02:36:07.997Z,99820.91
2023-03-30T02:39:05.038Z,99831.28
2023-03-30T02:42:08.846Z,99830.31
2023-03-30T02:44:51.138Z,99823.06
2023-03-30T02:47:52.483Z,99821.41
2023-03-30T02:50:57.190Z,99819.69
2023-03-30T02:53:29.602Z,99823.91
2023-03-30T02:56:29.053Z,99808.56
2023-03-30T02:59:13.084Z,99805.94
2023-03-30T03:01:50.211Z,99814.97
2023-03-30T03:04:19.152Z,99801.31
2023-03-30T03:06:46.157Z,99795.13
2023-03-30T03:09:12.548Z,99778.78
2023-03-30T03:11:38.966Z,99778.25
2023-03-30T03:14:05.543Z,99762.66
2023-03-30T03:16:32.002Z,99762.63
2023-03-30T03:18:58.484Z,99760.84
2023-03-30T03:21:24.879Z,99765.28
2023-03-30T03:23:51.498Z,99755.66
2023-03-30T03:26:18.550Z,99752.81
2023-03-30T03:28:44.987Z,99754.22
2023-03-30T03:31:12.224Z,99747.50
2023-03-30T03:33:38.704Z,99733.09
2023-03-30T03:36:05.783Z,99744.72
2023-03-30T03:38:32.741Z,99742.63
2023-03-30T03:40:59.706Z,99740.94
2023-03-30T03:43:26.528Z,99725.84
2023-03-30T03:45:53.436Z,99737.22
2023-03-30T03:48:21.493Z,99716.31
2023-03-30T03:50:54.114Z,99718.97
2023-03-30T03:53:21.529Z,99715.22
2023-03-30T03:55:48.122Z,99713.31
2023-03-30T03:58:15.925Z,99730.06
2023-03-30T04:00:42.616Z,99721.84
2023-03-30T04:03:09.358Z,99710.19
2023-03-30T04:05:35.923Z,99704.00
2023-03-30T04:08:02.773Z,99708.88
2023-03-30T04:10:29.253Z,99717.72
2023-03-30T04:12:56.960Z,99707.03
2023-03-30T04:15:24.312Z,99710.16
2023-03-30T04:17:57.865Z,99697.91
2023-03-30T04:20:28.837Z,99699.47
2023-03-30T04:22:55.355Z,99695.94
2023-03-30T04:25:25.730Z,99697.38
2023-03-30T04:27:52.807Z,99689.00
2023-03-30T04:30:22.357Z,99688.16
2023-03-30T04:33:02.782Z,99680.66
2023-03-30T04:35:34.320Z,99675.19
2023-03-30T04:38:02.478Z,99672.56
2023-03-30T04:40:29.485Z,99673.25
2023-03-30T04:43:02.054Z,99666.78
2023-03-30T04:45:32.111Z,99655.09
2023-03-30T04:47:58.811Z,99653.28
2023-03-30T04:50:26.041Z,99651.97
2023-03-30T04:52:52.489Z,99645.75
2023-03-30T04:55:18.944Z,99637.56
2023-03-30T04:57:45.396Z,99643.63
2023-03-30T05:00:13.634Z,99645.22
2023-03-30T05:02:40.292Z,99643.75
2023-03-30T05:05:07.287Z,99641.88
2023-03-30T05:07:33.835Z,99644.06
2023-03-30T05:10:00.366Z,99645.81
2023-03-30T05:12:26.838Z,99642.38
2023-03-30T05:14:53.346Z,99650.69
2023-03-30T05:17:19.812Z,99642.44
2023-03-30T05:19:47.246Z,99652.78
2023-03-30T05:22:15.496Z,99638.75
2023-03-30T05:24:41.925Z,99645.63
2023-03-30T05:27:08.404Z,99653.53
2023-03-30T05:29:34.853Z,99648.34
2023-03-30T05:32:01.411Z,99643.28
2023-03-30T05:34:27.821Z,99644.13
2023-03-30T05:36:54.314Z,99640.78
2023-03-30T05:39:21.079Z,99644.81
2023-03-30T05:41:47.527Z,99639.13
2023-03-30T05:44:14.059Z,99630.63
2023-03-30T05:46:40.510Z,99637.38
2023-03-30T05:49:07.216Z,99630.13
2023-03-30T05:51:33.692Z,99630.97
2023-03-30T05:54:00.469Z,99627.63
2023-03-30T05:56:27.271Z,99633.53
2023-03-30T05:58:53.704Z,99619.50
2023-03-30T06:01:21.309Z,99619.22
2023-03-30T06:03:47.998Z,99617.13
2023-03-30T06:06:14.628Z,99623.28
2023-03-30T06:08:41.907Z,99618.13
2023-03-30T06:11:08.402Z,99631.31
2023-03-30T06:13:34.822Z,99629.03
2023-03-30T06:16:03.117Z,99639.19
2023-03-30T06:18:30.323Z,99634.16
2023-03-30T06:20:57.431Z,99626.59
2023-03-30T06:23:23.989Z,99622.97
2023-03-30T06:25:53.164Z,99620.94
2023-03-30T06:28:20.423Z,99634.94
2023-03-30T06:30:49.124Z,99624.69
2023-03-30T06:33:16.762Z,99616.97
2023-03-30T06:35:51.257Z,99598.81
2023-03-30T06:38:19.149Z,99596.16
2023-03-30T06:40:45.924Z,99598.03
2023-03-30T06:43:18.332Z,99583.38
2023-03-30T06:45:55.993Z,99591.50
2023-03-30T06:48:26.733Z,99576.84
2023-03-30T06:50:54.265Z,99593.75
2023-03-30T06:53:22.012Z,99585.66
2023-03-30T06:55:53.535Z,99577.38
2023-03-30T06:58:20.222Z,99594.38
2023-03-30T07:00:47.088Z,99579.69
2023-03-30T07:03:13.768Z,99582.59
2023-03-30T07:05:40.354Z,99568.63
2023-03-30T07:08:08.167Z,99575.81
2023-03-30T07:10:34.744Z,99584.41
2023-03-30T07:13:01.270Z,99580.91
2023-03-30T07:15:27.905Z,99565.06
2023-03-30T07:17:54.543Z,99589.41
2023-03-30T07:20:21.064Z,99585.59
2023-03-30T07:22:47.598Z,99584.34
2023-03-30T07:25:14.414Z,99590.25
2023-03-30T07:27:41.027Z,99594.72
2023-03-30T07:30:20.547Z,99589.53
2023-03-30T07:32:50.241Z,99597.31
2023-03-30T07:35:17.008Z,99589.28
2023-03-30T07:37:43.587Z,99592.44
2023-03-30T07:40:11.704Z,99596.50
2023-03-30T07:42:38.516Z,99596.06
2023-03-30T07:45:06.363Z,99602.81
2023-03-30T07:47:33.054Z,99596.63
2023-03-30T07:49:59.549Z,99601.63
2023-03-30T07:52:26.303Z,99607.88
2023-03-30T07:54:54.597Z,99603.72
2023-03-30T07:57:22.137Z,99601.81
2023-03-30T07:59:49.036Z,99588.78
2023-03-30T08:02:16.856Z,99591.75
2023-03-30T08:04:46.737Z,99587.44
2023-03-30T08:07:14.353Z,99583.03
2023-03-30T08:09:41.102Z,99589.38
2023-03-30T08:12:07.735Z,99591.28
2023-03-30T08:14:34.150Z,99600.53
2023-03-30T08:17:00.709Z,99600.50
2023-03-30T08:19:28.419Z,99605.34
2023-03-30T08:21:57.080Z,99616.19
2023-03-30T08:24:23.695Z,99615.41
2023-03-30T08:26:50.252Z,99605.41
2023-03-30T08:29:17.052Z,99617.97
2023-03-30T08:31:43.738Z,99614.94
2023-03-30T08:34:10.257Z,99618.41
2023-03-30T08:36:36.671Z,99618.19
2023-03-30T08:39:04.847Z,99618.31
2023-03-30T08:42:20.766Z,99614.06
2023-03-30T08:44:54.468Z,99610.78
2023-03-30T08:47:34.879Z,99611.06
2023-03-30T08:50:25.967Z,99610.94
2023-03-30T08:52:52.771Z,99609.22
2023-03-30T08:55:24.430Z,99607.53
2023-03-30T08:57:51.221Z,99603.75
2023-03-30T09:00:29.269Z,99596.22
2023-03-30T09:03:06.990Z,99602.75
2023-03-30T09:05:38.804Z,99602.16
2023-03-30T09:08:20.375Z,99612.59
2023-03-30T09:10:56.410Z,99614.72
2023-03-30T09:13:28.254Z,99610.84
2023-03-30T09:16:06.337Z,99606.38
2023-03-30T09:18:36.380Z,99597.03
2023-03-30T09:21:06.288Z,99609.06
2023-03-30T09:23:33.957Z,99599.13
2023-03-30T09:26:22.399Z,99596.78
2023-03-30T09:29:03.742Z,99592.38
2023-03-30T09:31:41.234Z,99584.03
2023-03-30T09:34:27.595Z,99591.69
2023-03-30T09:37:06.892Z,99584.22
2023-03-30T09:39:35.383Z,99580.41
2023-03-30T09:42:23.634Z,99591.34
2023-03-30T09:45:15.312Z,99594.16
2023-03-30T09:47:42.388Z,99590.41
2023-03-30T09:50:18.144Z,99585.69
2023-03-30T09:53:07.204Z,99595.38
2023-03-30T09:55:36.422Z,99587.47
2023-03-30T09:58:13.687Z,99586.03
2023-03-30T10:00:40.456Z,99567.69
2023-03-30T10:03:08.116Z,99568.00
2023-03-30T10:05:36.522Z,99581.00
2023-03-30T10:08:19.455Z,99575.63
2023-03-30T10:10:46.240Z,99574.41
2023-03-30T10:13:16.618Z,99559.69
2023-03-30T10:15:46.224Z,99565.69
2023-03-30T10:18:18.471Z,99558.31
2023-03-30T10:20:53.280Z,99569.22
2023-03-30T10:23:22.965Z,99559.25
2023-03-30T10:25:52.138Z,99559.25
2023-03-30T10:28:30.786Z,99568.25
2023-03-30T10:31:05.387Z,99556.66
2023-03-30T10:33:40.152Z,99549.72
2023-03-30T10:36:07.787Z,99547.28
2023-03-30T10:38:35.057Z,99547.66
2023-03-30T10:41:08.486Z,99560.63
2023-03-30T10:43:36.119Z,99556.81
2023-03-30T10:46:20.041Z,99539.84
2023-03-30T10:48:59.288Z,99534.66
2023-03-30T10:51:56.023Z,99532.09
2023-03-30T10:54:33.829Z,99528.63
2023-03-30T10:57:08.617Z,99523.13
2023-03-30T10:59:54.108Z,99525.72
2023-03-30T11:02:35.963Z,99545.38
2023-03-30T11:05:14.367Z,99546.34
2023-03-30T11:07:47.191Z,99533.19
2023-03-30T11:10:32.884Z,99530.94
2023-03-30T11:13:06.499Z,99562.97
2023-03-30T11:15:49.521Z,99568.38
2023-03-30T11:18:31.084Z,99586.44
2023-03-30T11:21:01.663Z,99590.94
2023-03-30T11:23:39.923Z,99587.94
2023-03-30T11:26:11.611Z,99595.25
2023-03-30T11:29:02.253Z,99588.00
2023-03-30T11:31:47.440Z,99616.41
2023-03-30T11:34:47.742Z,99619.88
2023-03-30T11:37:43.822Z,99627.13
2023-03-30T11:40:11.759Z,99642.75
2023-03-30T11:42:38.311Z,99636.56
2023-03-30T11:45:50.525Z,99634.06
2023-03-30T11:48:38.234Z,99641.75
2023-03-30T11:51:21.931Z,99626.50
2023-03-30T11:53:54.762Z,99624.53
2023-03-30T11:56:34.489Z,99632.72
2023-03-30T11:59:16.988Z,99634.56
2023-03-30T12:01:46.356Z,99632.34
2023-03-30T12:04:16.226Z,99633.66
2023-03-30T12:07:15.202Z,99635.34
2023-03-30T12:09:53.558Z,99628.03
2023-03-30T12:12:33.570Z,99623.47
2023-03-30T12:15:06.848Z,99629.47
2023-03-30T12:17:50.542Z,99625.38
2023-03-30T12:20:38.350Z,99619.97
2023-03-30T12:23:47.658Z,99618.41
2023-03-30T12:26:37.858Z,99609.59
2023-03-30T12:29:44.333Z,99612.47
2023-03-30T12:31:58.688Z,99615.88
2023-03-30T12:34:31.945Z,99608.88
2023-03-30T12:37:12.940Z,99613.16
2023-03-30T12:40:06.819Z,99619.47
2023-03-30T12:42:39.331Z,99611.84
2023-03-30T12:45:32.001Z,99626.56
2023-03-30T12:48:07.674Z,99617.34
2023-03-30T12:50:40.002Z,99608.16
2023-03-30T12:53:43.835Z,99602.28
2023-03-30T12:56:17.694Z,99609.47
2023-03-30T12:59:02.302Z,99595.50
2023-03-30T13:01:37.892Z,99608.72
2023-03-30T13:04:12.055Z,99601.22
2023-03-30T13:06:48.191Z,99593.97
2023-03-30T13:09:14.638Z,99587.41
2023-03-30T13:12:24.777Z,99591.34
2023-03-30T13:15:32.377Z,99600.13
2023-03-30T13:18:22.758Z,99597.28
2023-03-30T13:20:55.637Z,99603.34
2023-03-30T13:23:22.131Z,99602.66
2023-03-30T13:25:57.577Z,99592.72
2023-03-30T13:28:49.028Z,99583.94
2023-03-30T13:31:36.222Z,99586.03
2023-03-30T13:34:36.732Z,99586.69
2023-03-30T13:37:09.208Z,99586.28
2023-03-30T13:39:54.433Z,99582.53
2023-03-30T13:43:02.250Z,99593.09
2023-03-30T13:45:50.714Z,99598.81
2023-03-30T13:48:54.691Z,99602.41
2023-03-30T13:51:25.938Z,99592.97
2023-03-30T13:53:57.385Z,99589.19
2023-03-30T13:56:25.891Z,99584.25
2023-03-30T13:59:11.812Z,99587.28
2023-03-30T14:01:39.823Z,99597.81
2023-03-30T14:04:11.863Z,99585.69
2023-03-30T14:06:44.152Z,99597.91
2023-03-30T14:09:19.042Z,99596.47
2023-03-30T14:11:49.460Z,99592.38
2023-03-30T14:14:27.773Z,99594.81
2023-03-30T14:16:55.583Z,99592.34
2023-03-30T14:20:05.932Z,99603.34
2023-03-30T14:22:40.598Z,99591.28
2023-03-30T14:25:23.033Z,99589.81
2023-03-30T14:27:49.554Z,99590.41
2023-03-30T14:30:24.851Z,99604.72
2023-03-30T14:33:09.025Z,99605.59
2023-03-30T14:35:41.899Z,99589.38
2023-03-30T14:38:17.037Z,99596.66
2023-03-30T14:40:44.196Z,99596.13
2023-03-30T14:43:16.868Z,99621.03
2023-03-30T14:45:44.173Z,99616.13
2023-03-30T14:48:24.833Z,99627.78
2023-03-30T14:50:51.357Z,99629.19
2023-03-30T14:53:26.219Z,99629.19
2023-03-30T14:55:57.011Z,99629.75
2023-03-30T14:58:26.567Z,99630.31
2023-03-30T15:00:57.471Z,99639.75
2023-03-30T15:03:33.540Z,99634.38
2023-03-30T15:06:02.281Z,99639.84
2023-03-30T15:08:32.630Z,99638.88
2023-03-30T15:11:07.960Z,99638.59
2023-03-30T15:13:41.942Z,99636.72
2023-03-30T15:16:14.632Z,99629.97
2023-03-30T15:18:41.568Z,99622.28
2023-03-30T15:21:11.057Z,99615.13
2023-03-30T15:23:41.411Z,99623.34
2023-03-30T15:26:08.870Z,99618.47
2023-03-30T15:28:42.887Z,99619.53
2023-03-30T15:31:12.837Z,99623.25
2023-03-30T15:33:44.374Z,99622.16
2023-03-30T15:36:17.252Z,99623.72
2023-03-30T15:38:54.803Z,99632.19
2023-03-30T15:41:23.784Z,99641.00
2023-03-30T15:43:59.150Z,99646.47
2023-03-30T15:46:27.978Z,99650.78
2023-03-30T15:48:56.531Z,99663.22
2023-03-30T15:51:38.602Z,99669.13
2023-03-30T15:54:13.547Z,99667.28
2023-03-30T15:56:41.818Z,99683.09
2023-03-30T15:59:25.264Z,99671.28
2023-03-30T16:02:01.069Z,99678.50
2023-03-30T16:04:31.486Z,99673.44
2023-03-30T16:06:58.167Z,99683.19
2023-03-30T16:09:24.635Z,99706.16
2023-03-30T16:11:51.200Z,99694.19
2023-03-30T16:14:22.721Z,99691.22
2023-03-30T16:16:49.240Z,99691.22
2023-03-30T16:19:18.412Z,99698.22
2023-03-30T16:21:45.631Z,99708.06
2023-03-30T16:24:12.767Z,99704.28
2023-03-30T16:26:39.698Z,99686.72
2023-03-30T16:29:18.073Z,99693.97
2023-03-30T16:31:44.557Z,99704.69
2023-03-30T16:34:11.055Z,99711.25
2023-03-30T16:36:37.480Z,99705.53
2023-03-30T16:39:06.741Z,99706.38
2023-03-30T16:41:33.221Z,99711.72
2023-03-30T16:43:59.722Z,99712.13
2023-03-30T16:46:26.236Z,99719.31
2023-03-30T16:48:52.694Z,99728.22
2023-03-30T16:51:19.783Z,99720.22
2023-03-30T16:53:46.433Z,99732.34
2023-03-30T16:56:17.385Z,99721.72
2023-03-30T16:58:45.961Z,99713.28
2023-03-30T17:01:13.898Z,99702.19
2023-03-30T17:03:40.575Z,99699.06
2023-03-30T17:06:07.980Z,99704.84
2023-03-30T17:08:34.816Z,99705.22
2023-03-30T17:11:04.817Z,99715.44
2023-03-30T17:13:32.055Z,99718.72
2023-03-30T17:16:01.070Z,99720.16
2023-03-30T17:21:00.804Z,99722.13
2023-03-30T17:23:32.341Z,99719.31
2023-03-30T17:26:00.573Z,99729.59
2023-03-30T17:28:28.837Z,99722.75
2023-03-30T17:30:57.624Z,99721.91
2023-03-30T17:33:24.988Z,99717.56
2023-03-30T17:35:55.211Z,99729.66
2023-03-30T17:38:22.522Z,99727.56
2023-03-30T17:40:49.739Z,99730.91
2023-03-30T17:43:16.657Z,99732.06
2023-03-30T17:45:43.599Z,99723.94
2023-03-30T17:48:16.505Z,99730.81
2023-03-30T17:50:46.253Z,99734.91
2023-03-30T17:53:17.248Z,99733.69
2023-03-30T17:55:46.110Z,99751.22
2023-03-30T17:58:18.528Z,99746.09
2023-03-30T18:00:46.902Z,99756.03
2023-03-30T18:03:18.552Z,99761.88
2023-03-30T18:05:46.216Z,99755.88
2023-03-30T18:08:17.248Z,99754.06
2023-03-30T18:11:01.890Z,99767.13
2023-03-30T18:13:30.428Z,99768.75
2023-03-30T18:15:58.545Z,99770.91
2023-03-30T18:18:28.451Z,99771.00
2023-03-30T18:20:57.081Z,99770.78
2023-03-30T18:23:23.878Z,99767.91
2023-03-30T18:25:51.111Z,99765.75
2023-03-30T18:28:26.024Z,99763.34
2023-03-30T18:30:55.315Z,99770.47
2023-03-30T18:33:22.034Z,99765.41
2023-03-30T18:35:50.352Z,99761.53
2023-03-30T18:38:20.296Z,99768.69
2023-03-30T18:40:57.650Z,99762.81
2023-03-30T18:43:26.239Z,99760.81
2023-03-30T18:45:52.880Z,99759.47
2023-03-30T18:48:21.703Z,99757.75
2023-03-30T18:50:53.565Z,99763.78
2023-03-30T18:53:22.376Z,99764.31
2023-03-30T18:55:53.646Z,99762.38
2023-03-30T18:58:22.927Z,99760.81
2023-03-30T19:00:51.555Z,99763.03
2023-03-30T19:03:19.712Z,99758.78
2023-03-30T19:05:46.325Z,99762.78
2023-03-30T19:08:14.882Z,99760.81
2023-03-30T19:10:43.003Z,99774.72
2023-03-30T19:13:14.209Z,99771.53
2023-03-30T19:15:41.397Z,99779.47
2023-03-30T19:18:08.444Z,99776.50
2023-03-30T19:20:37.994Z,99782.00
2023-03-30T19:23:04.526Z,99777.47
2023-03-30T19:25:31.467Z,99778.44
2023-03-30T19:28:03.770Z,99783.59
2023-03-30T19:30:36.123Z,99785.03
2023-03-30T19:33:12.319Z,99776.28
2023-03-30T19:35:44.148Z,99768.03
2023-03-30T19:38:10.737Z,99772.66
2023-03-30T19:40:40.404Z,99768.06
2023-03-30T19:43:07.624Z,99769.56
2023-03-30T19:45:34.070Z,99776.94
2023-03-30T19:48:00.584Z,99770.84
2023-03-30T19:50:29.495Z,99771.69
2023-03-30T19:52:56.747Z,99774.72
2023-03-30T19:55:23.360Z,99770.13
2023-03-30T19:57:49.915Z,99772.03
2023-03-30T20:00:18.104Z,99779.28
2023-03-30T20:02:50.689Z,99776.34
2023-03-30T20:05:18.128Z,99776.25
2023-03-30T20:07:45.955Z,99770.81
2023-03-30T20:10:16.483Z,99769.34
2023-03-30T20:12:43.043Z,99766.97
2023-03-30T20:15:10.079Z,99771.63
2023-03-30T20:17:38.216Z,99769.13
2023-03-30T20:20:08.562Z,99756.63
2023-03-30T20:22:37.057Z,99767.91
2023-03-30T20:25:07.304Z,99763.31
2023-03-30T20:27:35.146Z,99758.84
2023-03-30T20:30:02.389Z,99761.94
2023-03-30T20:32:28.861Z,99748.28
2023-03-30T20:34:55.585Z,99759.41
2023-03-30T20:37:22.203Z,99766.44
2023-03-30T20:39:51.771Z,99761.91
2023-03-30T20:42:25.862Z,99756.06
2023-03-30T20:44:53.365Z,99757.91
2023-03-30T20:47:23.117Z,99762.50
2023-03-30T20:49:49.634Z,99765.34
2023-03-30T20:52:16.679Z,99768.69
2023-03-30T20:54:44.340Z,99772.13
2023-03-30T20:57:11.371Z,99764.53
2023-03-30T20:59:39.286Z,99756.84
2023-03-30T21:02:05.795Z,99752.34
2023-03-30T21:04:33.689Z,99753.44
2023-03-30T21:07:00.802Z,99750.13
2023-03-30T21:09:27.499Z,99756.75
2023-03-30T21:11:53.944Z,99753.66
2023-03-30T21:14:20.386Z,99748.00
2023-03-30T21:16:46.850Z,99762.81
2023-03-30T21:19:13.314Z,99759.28
2023-03-30T21:21:39.816Z,99756.91
2023-03-30T21:24:08.688Z,99742.31
2023-03-30T21:26:35.337Z,99744.66
2023-03-30T21:29:01.812Z,99742.22
2023-03-30T21:31:28.257Z,99743.66
2023-03-30T21:33:54.828Z,99735.06
2023-03-30T21:36:21.517Z,99741.94
2023-03-30T21:38:48.050Z,99742.53
2023-03-30T21:41:20.904Z,99730.63
2023-03-30T21:43:48.159Z,99742.09
2023-03-30T21:46:17.904Z,99736.72
2023-03-30T21:48:46.195Z,99723.59
2023-03-30T21:51:15.692Z,99722.16
2023-03-30T21:53:43.368Z,99719.53
2023-03-30T21:56:11.618Z,99720.84
2023-03-30T21:58:38.920Z,99719.13
2023-03-30T22:01:12.303Z,99717.78
2023-03-30T22:03:41.215Z,99728.28
2023-03-30T22:06:10.275Z,99728.94
2023-03-30T22:08:37.057Z,99722.78
2023-03-30T22:11:11.428Z,99719.72
2023-03-30T22:13:37.851Z,99715.91
2023-03-30T22:16:28.091Z,99722.47
2023-03-30T22:18:54.993Z,99706.91
2023-03-30T22:21:29.069Z,99709.50
2023-03-30T22:23:55.614Z,99706.59
2023-03-30T22:26:22.447Z,99707.00
2023-03-30T22:28:49.039Z,99702.38
2023-03-30T22:31:15.802Z,99694.94
2023-03-30T22:33:42.555Z,99700.94
2023-03-30T22:36:15.143Z,99703.22
2023-03-30T22:38:42.358Z,99697.78
2023-03-30T22:41:10.265Z,99699.47
2023-03-30T22:43:36.970Z,99690.47
2023-03-30T22:46:05.536Z,99685.34
2023-03-30T22:48:32.800Z,99687.84
2023-03-30T22:51:08.171Z,99687.06
2023-03-30T22:53:35.369Z,99692.78
2023-03-30T22:56:02.040Z,99689.81
2023-03-30T22:58:28.503Z,99691.53
2023-03-30T23:01:02.174Z,99694.91
2023-03-30T23:03:28.988Z,99691.31
2023-03-30T23:05:56.143Z,99688.56
2023-03-30T23:08:23.872Z,99688.25
2023-03-30T23:10:53.826Z,99688.44
2023-03-30T23:13:20.254Z,99682.53
2023-03-30T23:15:48.465Z,99683.00
2023-03-30T23:18:15.678Z,99687.97
2023-03-30T23:20:46.422Z,99675.56
2023-03-30T23:23:13.936Z,99683.69
2023-03-30T23:25:49.296Z,99675.31
2023-03-30T23:28:16.452Z,99669.97
2023-03-30T23:30:44.620Z,99670.97
2023-03-30T23:33:11.967Z,99659.75
2023-03-30T23:35:38.433Z,99665.94
2023-03-30T23:38:04.869Z,99666.78
2023-03-30T23:40:31.286Z,99668.06
2023-03-30T23:42:57.740Z,99668.63
2023-03-30T23:45:24.201Z,99666.91
2023-03-30T23:47:50.665Z,99651.94
2023-03-30T23:50:17.167Z,99663.03
2023-03-30T23:52:43.598Z,99649.78
2023-03-30T23:55:10.701Z,99644.22
2023-03-30T23:57:37.113Z,99649.97
